createdAt,value
2023-01-15T00:00:44.708Z,96117.13
2023-01-15T00:01:46.481Z,96100.56
2023-01-15T00:02:48.229Z,96129.94
2023-01-15T00:03:50.365Z,96100.13
2023-01-15T00:04:52.421Z,96118.41
2023-01-15T00:05:54.135Z,96092.56
2023-01-15T00:06:55.974Z,96119.19
2023-01-15T00:07:57.710Z,96119.53
2023-01-15T00:08:59.474Z,96115.22
2023-01-15T00:10:01.237Z,96125.00
2023-01-15T00:11:06.107Z,96123.63
2023-01-15T00:12:07.872Z,96103.69
2023-01-15T00:13:09.625Z,96049.19
2023-01-15T00:14:12.960Z,96120.78
2023-01-15T00:15:14.789Z,96122.75
2023-01-15T00:16:20.239Z,96100.22
2023-01-15T00:17:21.940Z,96126.22
2023-01-15T00:18:23.616Z,96128.66
2023-01-15T00:19:25.350Z,96121.97
2023-01-15T00:20:27.211Z,96147.47
2023-01-15T00:21:29.295Z,96107.66
2023-01-15T00:22:31.001Z,96077.25
2023-01-15T00:23:33.577Z,96127.78
2023-01-15T00:24:35.289Z,96130.63
2023-01-15T00:25:37.057Z,96109.59
2023-01-15T00:26:39.149Z,96117.19
2023-01-15T00:27:40.880Z,96131.91
2023-01-15T00:28:42.816Z,96149.41
2023-01-15T00:29:44.538Z,96138.75
2023-01-15T00:30:46.373Z,96105.13
2023-01-15T00:31:58.435Z,96128.91
2023-01-15T00:33:00.318Z,96121.88
2023-01-15T00:34:02.646Z,96108.63
2023-01-15T00:35:04.763Z,96131.56
2023-01-15T00:36:06.585Z,96101.84
2023-01-15T00:37:08.229Z,96022.03
2023-01-15T00:38:09.999Z,96128.22
2023-01-15T00:39:11.726Z,96120.91
2023-01-15T00:40:15.115Z,96101.34
2023-01-15T00:41:17.898Z,96086.53
2023-01-15T00:42:19.580Z,96074.47
2023-01-15T00:43:22.675Z,96120.06
2023-01-15T00:44:24.400Z,96099.69
2023-01-15T00:45:26.135Z,96088.94
2023-01-15T00:46:28.011Z,96109.31
2023-01-15T00:47:29.773Z,96123.19
2023-01-15T00:48:32.806Z,96121.97
2023-01-15T00:49:34.732Z,96103.19
2023-01-15T00:50:36.490Z,96018.41
2023-01-15T00:51:38.428Z,95996.91
2023-01-15T00:52:40.669Z,96133.91
2023-01-15T00:53:42.497Z,96082.44
2023-01-15T00:54:44.290Z,96121.03
2023-01-15T00:55:46.065Z,96119.19
2023-01-15T00:56:47.761Z,96098.47
2023-01-15T00:57:49.374Z,96086.00
2023-01-15T00:58:51.139Z,96123.16
2023-01-15T00:59:52.911Z,96130.28
2023-01-15T01:00:59.330Z,95909.25
2023-01-15T01:02:01.336Z,96056.84
2023-01-15T01:03:03.266Z,96118.06
2023-01-15T01:04:05.133Z,96086.09
2023-01-15T01:05:07.148Z,96119.63
2023-01-15T01:06:09.276Z,96028.28
2023-01-15T01:07:11.155Z,96065.50
2023-01-15T01:08:12.839Z,96113.66
2023-01-15T01:09:16.003Z,96050.63
2023-01-15T01:10:17.830Z,96115.47
2023-01-15T01:11:23.000Z,96115.03
2023-01-15T01:12:24.726Z,96103.41
2023-01-15T01:13:26.495Z,96064.72
2023-01-15T01:14:29.125Z,96018.63
2023-01-15T01:15:33.873Z,95930.81
2023-01-15T01:16:38.068Z,96120.91
2023-01-15T01:17:39.779Z,96095.81
2023-01-15T01:18:41.535Z,96120.41
2023-01-15T01:19:43.320Z,96097.63
2023-01-15T01:20:45.109Z,96026.72
2023-01-15T01:21:48.248Z,96113.13
2023-01-15T01:22:49.957Z,96099.69
2023-01-15T01:23:51.887Z,96118.59
2023-01-15T01:24:53.615Z,96089.72
2023-01-15T01:25:55.329Z,96115.28
2023-01-15T01:26:57.099Z,96114.00
2023-01-15T01:27:58.745Z,96064.06
2023-01-15T01:29:00.656Z,96094.50
2023-01-15T01:30:02.698Z,96115.63
2023-01-15T01:31:05.941Z,96079.06
2023-01-15T01:32:07.698Z,96119.34
2023-01-15T01:33:09.448Z,96067.13
2023-01-15T01:34:12.713Z,96109.03
2023-01-15T01:35:14.535Z,96144.56
2023-01-15T01:36:16.536Z,96037.75
2023-01-15T01:37:18.233Z,96107.75
2023-01-15T01:38:19.909Z,95997.81
2023-01-15T01:39:21.563Z,95981.19
2023-01-15T01:40:23.401Z,96115.81
2023-01-15T01:41:25.955Z,95884.34
2023-01-15T01:42:27.847Z,95917.50
2023-01-15T01:43:31.225Z,96069.13
2023-01-15T01:44:32.847Z,96111.66
2023-01-15T01:45:34.599Z,96077.66
2023-01-15T01:46:36.908Z,96103.31
2023-01-15T01:47:38.764Z,96101.31
2023-01-15T01:48:40.469Z,96125.47
2023-01-15T01:49:45.050Z,95927.09
2023-01-15T01:50:49.904Z,96111.72
2023-01-15T01:52:07.858Z,96119.84
2023-01-15T01:53:23.144Z,96097.16
2023-01-15T01:54:27.087Z,96106.97
2023-01-15T01:55:30.857Z,96063.03
2023-01-15T01:56:35.654Z,96072.72
2023-01-15T01:57:38.633Z,95997.81
2023-01-15T01:58:40.539Z,96104.63
2023-01-15T01:59:43.076Z,96089.78
2023-01-15T02:00:48.393Z,96130.00
2023-01-15T02:01:50.952Z,96103.91
2023-01-15T02:02:54.045Z,96044.78
2023-01-15T02:03:56.332Z,96067.16
2023-01-15T02:04:58.045Z,96131.00
2023-01-15T02:06:02.942Z,96103.56
2023-01-15T02:07:05.060Z,95935.03
2023-01-15T02:08:07.704Z,96072.19
2023-01-15T02:09:09.704Z,96115.16
2023-01-15T02:10:16.196Z,96098.38
2023-01-15T02:11:22.706Z,96052.53
2023-01-15T02:12:34.689Z,96081.84
2023-01-15T02:13:40.792Z,95911.53
2023-01-15T02:14:54.269Z,96119.44
2023-01-15T02:16:37.516Z,96068.59
2023-01-15T02:17:56.000Z,96063.38
2023-01-15T02:19:31.480Z,95922.31
2023-01-15T02:20:51.078Z,96075.84
2023-01-15T02:22:01.743Z,95915.72
2023-01-15T02:23:15.379Z,95924.38
2023-01-15T02:24:28.004Z,96063.50
2023-01-15T02:25:32.770Z,96106.03
2023-01-15T02:27:01.020Z,96060.59
2023-01-15T02:28:24.194Z,96095.66
2023-01-15T02:29:56.378Z,95943.19
2023-01-15T02:31:16.145Z,96092.88
2023-01-15T02:32:30.976Z,96111.38
2023-01-15T02:34:00.236Z,96036.44
2023-01-15T02:35:29.528Z,96088.25
2023-01-15T02:36:35.847Z,96089.47
2023-01-15T02:37:41.887Z,96052.06
2023-01-15T02:38:49.534Z,96053.34
2023-01-15T02:39:52.603Z,96090.53
2023-01-15T02:40:58.386Z,96083.41
2023-01-15T02:42:03.960Z,96082.66
2023-01-15T02:43:07.979Z,96050.84
2023-01-15T02:44:12.114Z,96079.69
2023-01-15T02:45:22.154Z,96058.97
2023-01-15T02:46:29.695Z,95910.19
2023-01-15T02:47:35.599Z,96080.81
2023-01-15T02:48:41.623Z,96084.28
2023-01-15T02:49:45.511Z,96074.38
2023-01-15T02:50:55.303Z,95879.91
2023-01-15T02:52:12.906Z,96059.47
2023-01-15T02:53:20.576Z,96077.84
2023-01-15T02:54:24.724Z,96076.16
2023-01-15T02:55:31.302Z,96085.50
2023-01-15T02:56:35.684Z,95952.06
2023-01-15T02:57:41.769Z,96078.84
2023-01-15T02:59:20.418Z,96090.44
2023-01-15T03:00:24.914Z,96084.16
2023-01-15T03:01:40.839Z,96062.16
2023-01-15T03:02:58.959Z,96071.69
2023-01-15T03:04:29.278Z,96058.19
2023-01-15T03:05:42.715Z,96052.13
2023-01-15T03:06:51.795Z,96087.06
2023-01-15T03:07:57.370Z,96063.66
2023-01-15T03:08:59.727Z,95865.28
2023-01-15T03:10:02.374Z,96056.97
2023-01-15T03:11:06.718Z,96107.16
2023-01-15T03:12:20.433Z,96080.53
2023-01-15T03:13:48.427Z,96092.09
2023-01-15T03:15:03.010Z,96035.50
2023-01-15T03:16:11.504Z,96110.78
2023-01-15T03:17:22.653Z,96085.16
2023-01-15T03:18:25.966Z,95932.66
2023-01-15T03:19:27.707Z,96113.28
2023-01-15T03:20:30.455Z,95969.50
2023-01-15T03:21:57.717Z,96093.97
2023-01-15T03:23:07.434Z,96080.91
2023-01-15T03:24:12.145Z,96066.34
2023-01-15T03:25:22.168Z,96079.25
2023-01-15T03:26:24.027Z,96078.56
2023-01-15T03:27:25.905Z,96068.16
2023-01-15T03:28:33.435Z,96064.00
2023-01-15T03:29:40.043Z,96082.19
2023-01-15T03:30:41.852Z,96069.53
2023-01-15T03:31:43.910Z,96077.50
2023-01-15T03:32:46.285Z,96031.47
2023-01-15T03:33:48.192Z,95831.78
2023-01-15T03:34:53.424Z,96079.25
2023-01-15T03:35:58.582Z,95903.84
2023-01-15T03:37:00.356Z,96064.84
2023-01-15T03:38:02.133Z,96085.31
2023-01-15T03:39:05.049Z,96086.09
2023-01-15T03:40:07.758Z,96078.28
2023-01-15T03:41:19.233Z,96084.44
2023-01-15T03:42:45.633Z,96097.25
2023-01-15T03:43:52.561Z,96085.47
2023-01-15T03:45:07.071Z,96048.88
2023-01-15T03:46:28.441Z,96064.69
2023-01-15T03:47:41.269Z,96087.66
2023-01-15T03:48:56.039Z,96072.31
2023-01-15T03:50:26.062Z,96014.78
2023-01-15T03:52:01.539Z,96116.25
2023-01-15T03:53:09.368Z,96092.69
2023-01-15T03:54:22.136Z,96090.25
2023-01-15T03:55:43.587Z,96046.59
2023-01-15T03:56:53.984Z,96083.06
2023-01-15T03:58:19.052Z,96091.38
2023-01-15T03:59:33.066Z,96096.16
2023-01-15T04:01:04.354Z,96091.81
2023-01-15T04:02:11.376Z,96078.03
2023-01-15T04:03:14.170Z,96070.75
2023-01-15T04:04:16.677Z,96067.91
2023-01-15T04:05:18.988Z,96069.13
2023-01-15T04:06:21.803Z,96043.91
2023-01-15T04:07:25.016Z,96069.91
2023-01-15T04:08:31.255Z,96022.78
2023-01-15T04:09:38.503Z,95869.81
2023-01-15T04:10:55.006Z,96072.31
2023-01-15T04:12:00.807Z,96070.84
2023-01-15T04:13:02.573Z,95969.94
2023-01-15T04:14:04.959Z,95863.59
2023-01-15T04:15:07.584Z,95759.28
2023-01-15T04:16:09.748Z,96078.03
2023-01-15T04:17:11.515Z,96073.78
2023-01-15T04:18:13.351Z,95977.72
2023-01-15T04:19:15.139Z,96028.72
2023-01-15T04:20:18.411Z,96071.09
2023-01-15T04:21:21.343Z,96039.91
2023-01-15T04:22:23.105Z,96075.16
2023-01-15T04:23:24.969Z,96012.31
2023-01-15T04:24:26.852Z,96083.38
2023-01-15T04:25:28.643Z,96065.78
2023-01-15T04:26:30.401Z,96075.94
2023-01-15T04:27:32.416Z,96082.53
2023-01-15T04:28:34.411Z,96021.69
2023-01-15T04:29:36.197Z,96015.16
2023-01-15T04:30:38.058Z,96082.84
2023-01-15T04:31:40.049Z,95920.28
2023-01-15T04:32:41.784Z,96006.75
2023-01-15T04:33:43.643Z,95970.41
2023-01-15T04:34:45.689Z,96085.66
2023-01-15T04:35:47.433Z,96039.13
2023-01-15T04:36:49.157Z,96095.41
2023-01-15T04:37:58.633Z,96082.69
2023-01-15T04:39:00.419Z,96083.41
2023-01-15T04:40:02.136Z,96084.78
2023-01-15T04:41:05.126Z,96079.09
2023-01-15T04:42:06.934Z,96032.66
2023-01-15T04:43:11.784Z,96083.31
2023-01-15T04:44:13.786Z,96037.41
2023-01-15T04:45:15.758Z,96080.72
2023-01-15T04:46:24.129Z,96084.00
2023-01-15T04:47:25.908Z,96013.22
2023-01-15T04:48:27.693Z,96085.31
2023-01-15T04:49:29.410Z,95747.69
2023-01-15T04:50:31.129Z,96027.34
2023-01-15T04:51:33.079Z,95952.75
2023-01-15T04:52:34.756Z,96088.31
2023-01-15T04:53:36.641Z,96040.56
2023-01-15T04:54:38.495Z,96086.78
2023-01-15T04:55:40.241Z,96105.34
2023-01-15T04:56:48.170Z,96085.22
2023-01-15T04:57:50.464Z,95913.56
2023-01-15T04:58:52.201Z,96082.97
2023-01-15T04:59:53.917Z,96079.75
2023-01-15T05:00:55.706Z,96067.84
2023-01-15T05:02:04.644Z,95891.41
2023-01-15T05:03:07.961Z,96040.44
2023-01-15T05:04:09.899Z,96018.44
2023-01-15T05:05:11.663Z,96035.94
2023-01-15T05:06:13.419Z,95974.97
2023-01-15T05:07:15.218Z,95990.00
2023-01-15T05:08:17.103Z,96111.50
2023-01-15T05:09:19.048Z,96090.28
2023-01-15T05:10:20.827Z,96087.22
2023-01-15T05:11:22.722Z,96099.19
2023-01-15T05:12:24.511Z,96094.34
2023-01-15T05:13:26.357Z,96010.56
2023-01-15T05:14:28.221Z,95905.69
2023-01-15T05:15:30.272Z,96094.34
2023-01-15T05:16:32.573Z,95933.38
2023-01-15T05:17:34.594Z,96085.97
2023-01-15T05:18:36.447Z,96084.47
2023-01-15T05:19:38.129Z,96074.91
2023-01-15T05:20:39.871Z,96086.25
2023-01-15T05:21:44.021Z,95920.06
2023-01-15T05:22:45.821Z,96045.25
2023-01-15T05:23:49.185Z,95931.53
2023-01-15T05:24:51.062Z,96100.66
2023-01-15T05:25:52.819Z,96095.19
2023-01-15T05:26:54.534Z,96103.78
2023-01-15T05:27:56.287Z,96082.97
2023-01-15T05:28:59.966Z,96055.00
2023-01-15T05:30:01.803Z,96109.91
2023-01-15T05:31:12.060Z,96092.34
2023-01-15T05:32:13.982Z,96104.19
2023-01-15T05:33:15.737Z,96064.09
2023-01-15T05:34:17.467Z,96124.16
2023-01-15T05:35:19.323Z,96063.84
2023-01-15T05:36:31.501Z,96101.72
2023-01-15T05:37:33.321Z,96113.22
2023-01-15T05:38:35.314Z,96100.28
2023-01-15T05:39:37.202Z,96104.63
2023-01-15T05:40:38.900Z,96060.47
2023-01-15T05:41:40.967Z,96072.56
2023-01-15T05:42:42.688Z,96009.31
2023-01-15T05:43:44.483Z,96134.22
2023-01-15T05:44:46.253Z,96096.94
2023-01-15T05:45:48.037Z,96094.16
2023-01-15T05:46:51.512Z,96114.00
2023-01-15T05:47:53.981Z,95917.75
2023-01-15T05:49:00.397Z,95994.94
2023-01-15T05:50:02.164Z,96110.44
2023-01-15T05:51:04.092Z,96117.13
2023-01-15T05:52:06.203Z,96102.34
2023-01-15T05:53:08.204Z,96011.50
2023-01-15T05:54:14.175Z,95922.00
2023-01-15T05:55:15.995Z,96115.97
2023-01-15T05:56:17.956Z,96109.66
2023-01-15T05:57:19.866Z,96118.81
2023-01-15T05:58:21.621Z,96060.53
2023-01-15T05:59:26.152Z,96109.66
2023-01-15T06:00:30.378Z,96108.44
2023-01-15T06:01:32.454Z,96038.63
2023-01-15T06:02:34.187Z,96025.44
2023-01-15T06:03:36.348Z,96034.16
2023-01-15T06:04:38.154Z,96081.66
2023-01-15T06:05:39.863Z,96072.44
2023-01-15T06:06:43.283Z,95915.47
2023-01-15T06:07:45.046Z,96133.66
2023-01-15T06:08:47.191Z,96132.34
2023-01-15T06:09:48.918Z,96115.63
2023-01-15T06:10:51.044Z,95966.09
2023-01-15T06:11:52.815Z,96101.19
2023-01-15T06:12:54.526Z,96087.53
2023-01-15T06:13:56.289Z,96101.56
2023-01-15T06:14:58.082Z,96087.44
2023-01-15T06:16:01.255Z,96091.50
2023-01-15T06:17:03.060Z,96120.97
2023-01-15T06:18:04.996Z,96104.56
2023-01-15T06:19:08.145Z,96120.88
2023-01-15T06:20:10.746Z,95927.81
2023-01-15T06:21:13.943Z,96119.03
2023-01-15T06:22:15.934Z,95997.53
2023-01-15T06:23:18.513Z,96098.78
2023-01-15T06:24:20.268Z,96023.38
2023-01-15T06:25:22.287Z,95980.41
2023-01-15T06:26:24.738Z,96058.31
2023-01-15T06:27:26.512Z,96102.88
2023-01-15T06:28:28.878Z,96030.53
2023-01-15T06:29:30.562Z,96104.44
2023-01-15T06:30:32.731Z,96009.31
2023-01-15T06:31:34.483Z,96089.75
2023-01-15T06:32:36.299Z,95982.34
2023-01-15T06:33:38.433Z,96072.84
2023-01-15T06:34:40.135Z,96094.34
2023-01-15T06:35:41.885Z,96114.94
2023-01-15T06:36:43.680Z,96098.41
2023-01-15T06:37:45.450Z,96106.03
2023-01-15T06:38:47.915Z,96103.56
2023-01-15T06:39:49.626Z,96084.97
2023-01-15T06:40:51.374Z,96108.81
2023-01-15T06:41:53.118Z,96069.16
2023-01-15T06:42:58.996Z,96108.31
2023-01-15T06:44:00.859Z,95976.94
2023-01-15T06:45:02.887Z,96106.88
2023-01-15T06:46:04.725Z,96105.94
2023-01-15T06:47:17.434Z,96089.06
2023-01-15T06:48:19.127Z,96101.22
2023-01-15T06:49:20.853Z,96017.13
2023-01-15T06:50:22.906Z,96064.28
2023-01-15T06:51:25.291Z,96100.19
2023-01-15T06:52:29.541Z,96070.03
2023-01-15T06:53:31.549Z,96115.88
2023-01-15T06:54:34.539Z,95933.06
2023-01-15T06:55:36.261Z,96103.50
2023-01-15T06:56:37.978Z,96021.09
2023-01-15T06:57:40.412Z,96058.53
2023-01-15T06:58:43.402Z,96107.84
2023-01-15T06:59:45.275Z,96062.44
2023-01-15T07:00:47.030Z,95976.69
2023-01-15T07:01:48.882Z,96120.47
2023-01-15T07:02:51.312Z,96114.50
2023-01-15T07:03:53.201Z,96107.31
2023-01-15T07:04:54.967Z,95977.03
2023-01-15T07:05:56.805Z,96072.78
2023-01-15T07:06:58.562Z,96109.41
2023-01-15T07:08:00.442Z,96085.84
2023-01-15T07:09:02.140Z,95930.28
2023-01-15T07:10:04.034Z,96068.94
2023-01-15T07:11:07.975Z,95951.69
2023-01-15T07:12:09.699Z,96093.28
2023-01-15T07:13:11.394Z,96092.75
2023-01-15T07:14:13.990Z,96087.66
2023-01-15T07:15:15.863Z,96103.34
2023-01-15T07:16:17.668Z,96090.00
2023-01-15T07:17:19.976Z,96109.50
2023-01-15T07:18:21.776Z,96125.00
2023-01-15T07:19:23.461Z,96118.59
2023-01-15T07:20:25.327Z,96116.38
2023-01-15T07:21:27.238Z,96117.81
2023-01-15T07:22:29.365Z,96102.72
2023-01-15T07:23:31.128Z,96118.19
2023-01-15T07:24:33.729Z,96137.50
2023-01-15T07:25:35.445Z,96115.53
2023-01-15T07:26:37.390Z,96108.63
2023-01-15T07:27:39.207Z,96014.38
2023-01-15T07:28:41.041Z,96105.75
2023-01-15T07:29:42.911Z,96118.16
2023-01-15T07:30:44.593Z,96097.59
2023-01-15T07:31:46.391Z,95955.69
2023-01-15T07:32:48.075Z,96112.31
2023-01-15T07:33:49.859Z,96093.19
2023-01-15T07:34:51.564Z,96085.91
2023-01-15T07:35:53.271Z,96113.00
2023-01-15T07:36:54.974Z,96063.19
2023-01-15T07:37:56.763Z,96063.91
2023-01-15T07:38:58.679Z,96086.34
2023-01-15T07:40:00.463Z,96100.91
2023-01-15T07:41:02.216Z,96124.28
2023-01-15T07:42:04.035Z,96044.06
2023-01-15T07:43:05.820Z,96122.97
2023-01-15T07:44:10.669Z,96146.13
2023-01-15T07:45:12.381Z,96129.63
2023-01-15T07:46:14.126Z,96125.44
2023-01-15T07:47:20.362Z,95922.25
2023-01-15T07:48:22.074Z,96129.84
2023-01-15T07:49:23.792Z,96097.28
2023-01-15T07:50:25.894Z,96107.00
2023-01-15T07:51:27.553Z,95930.00
2023-01-15T07:52:29.335Z,95951.25
2023-01-15T07:53:31.143Z,96072.00
2023-01-15T07:54:32.854Z,96119.09
2023-01-15T07:55:36.199Z,96124.22
2023-01-15T07:56:38.343Z,96125.97
2023-01-15T07:57:41.353Z,96109.31
2023-01-15T07:58:43.053Z,96005.63
2023-01-15T07:59:44.989Z,96096.34
2023-01-15T08:00:46.748Z,96042.56
2023-01-15T08:01:48.751Z,96104.25
2023-01-15T08:02:50.953Z,96057.25
2023-01-15T08:03:53.139Z,96062.03
2023-01-15T08:04:54.996Z,96118.56
2023-01-15T08:05:57.139Z,96133.00
2023-01-15T08:07:02.959Z,95959.53
2023-01-15T08:08:04.841Z,96117.06
2023-01-15T08:09:06.543Z,96095.72
2023-01-15T08:10:10.219Z,96000.28
2023-01-15T08:11:12.064Z,96104.66
2023-01-15T08:12:13.736Z,96005.81
2023-01-15T08:13:15.423Z,96119.63
2023-01-15T08:14:17.206Z,96057.13
2023-01-15T08:15:18.880Z,96119.19
2023-01-15T08:16:20.654Z,96081.25
2023-01-15T08:17:22.352Z,96058.63
2023-01-15T08:18:24.041Z,96107.31
2023-01-15T08:19:25.740Z,96109.59
2023-01-15T08:20:27.619Z,95960.16
2023-01-15T08:21:29.450Z,96043.50
2023-01-15T08:22:31.304Z,95892.81
2023-01-15T08:23:33.007Z,96119.06
2023-01-15T08:24:34.735Z,95903.94
2023-01-15T08:25:36.474Z,96125.88
2023-01-15T08:26:38.202Z,96122.13
2023-01-15T08:27:40.951Z,96139.66
2023-01-15T08:28:42.776Z,96129.72
2023-01-15T08:29:44.784Z,96087.56
2023-01-15T08:30:46.480Z,96120.91
2023-01-15T08:31:48.735Z,95960.38
2023-01-15T08:32:50.557Z,96116.75
2023-01-15T08:33:52.240Z,96096.13
2023-01-15T08:34:53.996Z,96112.06
2023-01-15T08:35:57.633Z,96128.50
2023-01-15T08:36:59.328Z,96089.81
2023-01-15T08:38:05.801Z,96125.13
2023-01-15T08:39:07.579Z,96093.84
2023-01-15T08:40:11.305Z,96133.56
2023-01-15T08:41:13.004Z,96132.28
2023-01-15T08:42:14.837Z,96127.22
2023-01-15T08:43:16.533Z,96085.72
2023-01-15T08:44:18.238Z,96113.56
2023-01-15T08:45:19.903Z,96074.47
2023-01-15T08:46:21.701Z,96099.56
2023-01-15T08:47:23.460Z,96118.16
2023-01-15T08:48:26.214Z,96132.16
2023-01-15T08:49:27.996Z,96091.16
2023-01-15T08:50:29.686Z,96124.22
2023-01-15T08:51:31.344Z,96121.88
2023-01-15T08:52:33.100Z,96092.22
2023-01-15T08:53:35.312Z,96123.19
2023-01-15T08:54:37.172Z,96093.44
2023-01-15T08:55:38.923Z,96132.41
2023-01-15T08:56:40.686Z,96105.59
2023-01-15T08:57:42.380Z,96127.53
2023-01-15T08:58:45.371Z,95909.63
2023-01-15T08:59:47.959Z,96127.47
2023-01-15T09:00:49.711Z,96125.06
2023-01-15T09:01:51.539Z,96131.44
2023-01-15T09:02:53.296Z,96155.00
2023-01-15T09:03:54.996Z,96127.31
2023-01-15T09:04:56.789Z,95974.56
2023-01-15T09:05:59.753Z,96095.97
2023-01-15T09:07:01.761Z,96014.69
2023-01-15T09:08:05.310Z,96049.66
2023-01-15T09:09:07.680Z,96108.56
2023-01-15T09:10:09.983Z,96089.47
2023-01-15T09:11:11.710Z,96118.75
2023-01-15T09:12:13.529Z,96046.53
2023-01-15T09:13:15.341Z,96101.41
2023-01-15T09:14:55.927Z,96116.28
2023-01-15T09:15:38.731Z,96120.31
2023-01-15T09:16:41.122Z,96118.13
2023-01-15T09:17:43.114Z,96121.81
2023-01-15T09:18:44.866Z,96116.72
2023-01-15T09:19:46.673Z,96109.69
2023-01-15T09:20:48.633Z,95959.22
2023-01-15T09:21:50.349Z,96105.25
2023-01-15T09:22:52.574Z,96107.59
2023-01-15T09:23:54.424Z,96113.63
2023-01-15T09:24:56.273Z,96106.06
2023-01-15T09:26:00.469Z,96102.66
2023-01-15T09:27:02.198Z,96099.38
2023-01-15T09:28:04.156Z,96093.28
2023-01-15T09:29:07.289Z,96097.34
2023-01-15T09:30:14.799Z,96092.31
2023-01-15T09:31:16.528Z,96093.81
2023-01-15T09:32:18.252Z,96086.97
2023-01-15T09:33:20.401Z,96088.97
2023-01-15T09:34:22.220Z,96088.00
2023-01-15T09:35:24.136Z,96074.81
2023-01-15T09:36:33.613Z,96076.25
2023-01-15T09:37:35.355Z,95966.75
2023-01-15T09:38:37.025Z,96083.56
2023-01-15T09:39:39.020Z,96085.31
2023-01-15T09:40:46.805Z,96107.75
2023-01-15T09:41:51.582Z,95931.19
2023-01-15T09:43:02.683Z,96078.88
2023-01-15T09:44:33.245Z,96071.31
2023-01-15T09:45:44.711Z,96079.06
2023-01-15T09:47:11.444Z,96068.94
2023-01-15T09:48:38.085Z,96067.94
2023-01-15T09:50:00.622Z,96037.09
2023-01-15T09:51:24.054Z,96062.06
2023-01-15T09:52:49.748Z,96017.66
2023-01-15T09:54:43.729Z,96060.25
2023-01-15T09:55:50.274Z,96045.22
2023-01-15T09:56:54.133Z,96032.00
2023-01-15T09:58:00.029Z,96044.91
2023-01-15T09:59:13.288Z,95966.41
2023-01-15T10:00:24.700Z,96018.03
2023-01-15T10:01:30.557Z,96019.44
2023-01-15T10:02:43.714Z,96071.63
2023-01-15T10:03:52.755Z,96041.47
2023-01-15T10:05:15.721Z,96007.47
2023-01-15T10:06:23.884Z,96054.22
2023-01-15T10:07:51.513Z,96022.56
2023-01-15T10:09:11.858Z,96029.53
2023-01-15T10:10:21.562Z,96031.09
2023-01-15T10:11:31.613Z,95983.19
2023-01-15T10:12:38.310Z,96027.63
2023-01-15T10:13:47.809Z,95978.78
2023-01-15T10:15:02.101Z,96020.44
2023-01-15T10:16:04.265Z,96016.44
2023-01-15T10:17:19.606Z,96036.97
2023-01-15T10:18:24.162Z,95868.16
2023-01-15T10:19:34.414Z,95985.59
2023-01-15T10:21:05.650Z,96012.69
2023-01-15T10:22:18.702Z,95895.22
2023-01-15T10:23:42.125Z,95850.94
2023-01-15T10:24:58.122Z,96005.72
2023-01-15T10:26:07.237Z,95852.63
2023-01-15T10:27:18.684Z,95999.72
2023-01-15T10:29:00.531Z,96010.56
2023-01-15T10:30:19.696Z,95993.81
2023-01-15T10:31:27.095Z,95824.53
2023-01-15T10:33:01.173Z,95979.00
2023-01-15T10:34:24.359Z,95955.19
2023-01-15T10:35:40.879Z,95994.94
2023-01-15T10:36:48.602Z,95950.72
2023-01-15T10:37:54.498Z,95988.41
2023-01-15T10:39:14.032Z,95895.19
2023-01-15T10:40:52.278Z,95979.13
2023-01-15T10:42:26.306Z,95949.03
2023-01-15T10:43:44.791Z,95806.56
2023-01-15T10:45:01.826Z,95994.78
2023-01-15T10:46:19.505Z,95965.91
2023-01-15T10:47:29.258Z,95926.56
2023-01-15T10:48:51.460Z,95913.03
2023-01-15T10:49:53.455Z,95959.97
2023-01-15T10:50:58.250Z,95804.13
2023-01-15T10:52:08.014Z,95954.56
2023-01-15T10:53:35.323Z,95956.78
2023-01-15T10:54:42.583Z,95746.00
2023-01-15T10:55:52.783Z,95948.72
2023-01-15T10:57:03.706Z,95798.38
2023-01-15T10:58:14.684Z,95919.22
2023-01-15T10:59:34.673Z,95731.00
2023-01-15T11:00:38.679Z,95948.75
2023-01-15T11:01:40.956Z,95789.81
2023-01-15T11:02:45.054Z,95811.25
2023-01-15T11:03:47.438Z,95897.69
2023-01-15T11:04:49.168Z,95865.47
2023-01-15T11:05:50.920Z,95820.38
2023-01-15T11:06:52.821Z,95935.47
2023-01-15T11:08:45.196Z,95764.69
2023-01-15T11:09:23.472Z,95880.72
2023-01-15T11:10:25.167Z,95931.22
2023-01-15T11:11:36.014Z,95924.22
2023-01-15T11:12:39.546Z,95874.09
2023-01-15T11:13:53.115Z,95925.00
2023-01-15T11:14:54.805Z,95930.81
2023-01-15T11:15:56.717Z,95903.31
2023-01-15T11:16:58.437Z,95900.53
2023-01-15T11:18:03.077Z,95921.28
2023-01-15T11:19:24.490Z,95894.22
2023-01-15T11:20:35.207Z,95872.84
2023-01-15T11:21:42.406Z,95926.28
2023-01-15T11:22:45.029Z,95925.69
2023-01-15T11:23:48.140Z,95922.56
2023-01-15T11:24:58.950Z,95806.75
2023-01-15T11:26:01.119Z,95849.53
2023-01-15T11:27:03.283Z,95920.94
2023-01-15T11:28:07.331Z,95714.00
2023-01-15T11:29:16.051Z,95863.97
2023-01-15T11:30:34.264Z,95894.38
2023-01-15T11:31:37.766Z,95709.75
2023-01-15T11:32:39.696Z,95856.47
2023-01-15T11:33:57.656Z,95846.34
2023-01-15T11:35:02.257Z,95893.66
2023-01-15T11:36:23.326Z,95891.47
2023-01-15T11:37:25.629Z,95859.69
2023-01-15T11:38:29.773Z,95876.13
2023-01-15T11:39:32.132Z,95892.22
2023-01-15T11:40:34.379Z,95862.03
2023-01-15T11:41:36.281Z,95814.94
2023-01-15T11:42:39.131Z,95849.06
2023-01-15T11:43:41.772Z,95865.81
2023-01-15T11:44:53.405Z,95660.88
2023-01-15T11:45:55.304Z,95876.59
2023-01-15T11:46:57.088Z,95746.91
2023-01-15T11:47:58.833Z,95869.41
2023-01-15T11:49:00.510Z,95821.03
2023-01-15T11:50:02.422Z,95860.00
2023-01-15T11:51:14.192Z,95869.31
2023-01-15T11:52:24.464Z,95857.56
2023-01-15T11:53:29.377Z,95714.28
2023-01-15T11:54:36.190Z,95857.41
2023-01-15T11:55:38.035Z,95864.19
2023-01-15T11:56:44.245Z,95836.69
2023-01-15T11:57:47.475Z,95826.31
2023-01-15T11:58:53.462Z,95755.00
2023-01-15T11:59:55.275Z,95747.88
2023-01-15T12:00:57.282Z,95816.88
2023-01-15T12:02:25.164Z,95883.84
2023-01-15T12:03:34.684Z,95492.69
2023-01-15T12:04:38.421Z,95836.25
2023-01-15T12:05:47.467Z,95843.88
2023-01-15T12:06:49.244Z,95853.56
2023-01-15T12:07:57.345Z,95814.69
2023-01-15T12:09:30.098Z,95856.13
2023-01-15T12:10:52.981Z,95858.50
2023-01-15T12:12:12.554Z,95880.78
2023-01-15T12:13:52.400Z,95853.16
2023-01-15T12:14:54.093Z,95852.22
2023-01-15T12:16:24.806Z,95839.53
2023-01-15T12:18:11.614Z,95816.84
2023-01-15T12:19:23.098Z,95698.94
2023-01-15T12:20:56.667Z,95844.94
2023-01-15T12:22:25.609Z,95839.59
2023-01-15T12:23:36.088Z,95842.72
2023-01-15T12:24:50.942Z,95833.34
2023-01-15T12:26:14.309Z,95839.06
2023-01-15T12:27:40.621Z,95840.53
2023-01-15T12:29:01.860Z,95831.91
2023-01-15T12:30:30.513Z,95830.88
2023-01-15T12:31:51.138Z,95674.03
2023-01-15T12:33:06.817Z,95851.50
2023-01-15T12:34:14.660Z,95831.91
2023-01-15T12:35:33.532Z,95825.06
2023-01-15T12:37:59.863Z,95775.69
2023-01-15T12:39:07.872Z,95816.16
2023-01-15T12:40:15.491Z,95821.84
2023-01-15T12:41:24.814Z,95628.72
2023-01-15T12:42:30.373Z,95832.09
2023-01-15T12:43:32.197Z,95728.69
2023-01-15T12:44:58.852Z,95828.09
2023-01-15T12:46:02.860Z,95794.13
2023-01-15T12:47:12.098Z,95622.97
2023-01-15T12:48:33.535Z,95818.91
2023-01-15T12:49:49.649Z,95706.91
2023-01-15T12:50:54.298Z,95816.28
2023-01-15T12:52:19.770Z,95815.16
2023-01-15T12:53:39.938Z,95818.34
2023-01-15T12:54:58.478Z,95813.69
2023-01-15T12:56:27.479Z,95837.31
2023-01-15T12:57:36.620Z,95772.72
2023-01-15T12:59:03.002Z,95811.50